sensor_id;sensor_type;location;lat;lon;timestamp;temperature;humidity
16229;DHT22;8222;51.462;12.630;2022-08-19T00:01:31;22.60;99.90
16229;DHT22;8222;51.462;12.630;2022-08-19T00:03:59;22.90;99.90
16229;DHT22;8222;51.462;12.630;2022-08-19T00:06:27;23.00;99.90
16229;DHT22;8222;51.462;12.630;2022-08-19T00:08:54;23.00;99.90
16229;DHT22;8222;51.462;12.630;2022-08-19T00:11:20;22.90;99.90
16229;DHT22;8222;51.462;12.630;2022-08-19T00:13:46;22.80;99.90
16229;DHT22;8222;51.462;12.630;2022-08-19T00:16:14;22.70;99.90
16229;DHT22;8222;51.462;12.630;2022-08-19T00:18:40;22.40;99.90
16229;DHT22;8222;51.462;12.630;2022-08-19T00:21:05;22.20;99.90
16229;DHT22;8222;51.462;12.630;2022-08-19T00:23:34;22.20;99.90
16229;DHT22;8222;51.462;12.630;2022-08-19T00:26:05;22.50;99.90
16229;DHT22;8222;51.462;12.630;2022-08-19T00:28:32;22.50;99.90
16229;DHT22;8222;51.462;12.630;2022-08-19T00:30:59;22.50;99.90
16229;DHT22;8222;51.462;12.630;2022-08-19T00:33:25;22.40;99.90
16229;DHT22;8222;51.462;12.630;2022-08-19T00:35:50;22.20;99.90
16229;DHT22;8222;51.462;12.630;2022-08-19T00:38:16;22.10;99.90
16229;DHT22;8222;51.462;12.630;2022-08-19T00:40:43;22.00;99.90
16229;DHT22;8222;51.462;12.630;2022-08-19T00:43:12;21.80;99.90
16229;DHT22;8222;51.462;12.630;2022-08-19T00:45:40;21.80;99.90
16229;DHT22;8222;51.462;12.630;2022-08-19T00:48:10;21.80;99.90
16229;DHT22;8222;51.462;12.630;2022-08-19T00:50:35;21.70;99.90
16229;DHT22;8222;51.462;12.630;2022-08-19T00:53:02;21.60;99.90
16229;DHT22;8222;51.462;12.630;2022-08-19T00:55:31;21.60;99.90
16229;DHT22;8222;51.462;12.630;2022-08-19T00:58:08;21.60;99.90
16229;DHT22;8222;51.462;12.630;2022-08-19T01:00:35;21.60;99.90
16229;DHT22;8222;51.462;12.630;2022-08-19T01:03:10;21.60;99.90
16229;DHT22;8222;51.462;12.630;2022-08-19T01:05:37;21.60;99.90
16229;DHT22;8222;51.462;12.630;2022-08-19T01:08:05;21.60;99.90
16229;DHT22;8222;51.462;12.630;2022-08-19T01:10:37;21.50;99.90
16229;DHT22;8222;51.462;12.630;2022-08-19T01:13:04;21.60;99.90
16229;DHT22;8222;51.462;12.630;2022-08-19T01:15:33;21.60;99.90
16229;DHT22;8222;51.462;12.630;2022-08-19T01:18:07;21.70;99.90
16229;DHT22;8222;51.462;12.630;2022-08-19T01:20:33;21.70;99.90
16229;DHT22;8222;51.462;12.630;2022-08-19T01:23:00;21.80;99.90
16229;DHT22;8222;51.462;12.630;2022-08-19T01:25:34;21.90;99.90
16229;DHT22;8222;51.462;12.630;2022-08-19T01:28:01;22.00;99.90
16229;DHT22;8222;51.462;12.630;2022-08-19T01:30:31;21.90;99.90
16229;DHT22;8222;51.462;12.630;2022-08-19T01:32:58;22.00;99.90
16229;DHT22;8222;51.462;12.630;2022-08-19T01:35:28;21.90;99.90
16229;DHT22;8222;51.462;12.630;2022-08-19T01:38:00;21.80;99.90
16229;DHT22;8222;51.462;12.630;2022-08-19T01:40:30;21.70;99.90
16229;DHT22;8222;51.462;12.630;2022-08-19T01:42:57;21.50;99.90
16229;DHT22;8222;51.462;12.630;2022-08-19T01:45:25;21.50;99.90
16229;DHT22;8222;51.462;12.630;2022-08-19T01:47:52;21.60;99.90
16229;DHT22;8222;51.462;12.630;2022-08-19T01:50:18;21.60;99.90
16229;DHT22;8222;51.462;12.630;2022-08-19T01:52:44;21.30;99.90
16229;DHT22;8222;51.462;12.630;2022-08-19T01:55:13;21.40;99.90
16229;DHT22;8222;51.462;12.630;2022-08-19T01:57:41;21.40;99.90
16229;DHT22;8222;51.462;12.630;2022-08-19T02:00:11;21.40;99.90
16229;DHT22;8222;51.462;12.630;2022-08-19T02:02:37;21.30;99.90
16229;DHT22;8222;51.462;12.630;2022-08-19T02:05:06;21.20;99.90
16229;DHT22;8222;51.462;12.630;2022-08-19T02:07:34;21.20;99.90
16229;DHT22;8222;51.462;12.630;2022-08-19T02:10:10;21.20;99.90
16229;DHT22;8222;51.462;12.630;2022-08-19T02:12:36;21.20;99.90
16229;DHT22;8222;51.462;12.630;2022-08-19T02:15:03;21.20;99.90
16229;DHT22;8222;51.462;12.630;2022-08-19T02:17:29;21.20;99.90
16229;DHT22;8222;51.462;12.630;2022-08-19T02:19:56;21.20;99.90
16229;DHT22;8222;51.462;12.630;2022-08-19T02:22:22;21.20;99.90
16229;DHT22;8222;51.462;12.630;2022-08-19T02:24:48;21.30;99.90
16229;DHT22;8222;51.462;12.630;2022-08-19T02:27:14;21.30;99.90
16229;DHT22;8222;51.462;12.630;2022-08-19T02:29:40;21.30;99.90
16229;DHT22;8222;51.462;12.630;2022-08-19T02:32:06;21.30;99.90
16229;DHT22;8222;51.462;12.630;2022-08-19T02:34:32;21.30;99.90
16229;DHT22;8222;51.462;12.630;2022-08-19T02:36:58;21.40;99.90
16229;DHT22;8222;51.462;12.630;2022-08-19T02:39:24;21.50;99.90
16229;DHT22;8222;51.462;12.630;2022-08-19T02:41:49;21.50;99.90
16229;DHT22;8222;51.462;12.630;2022-08-19T02:44:16;21.60;99.90
16229;DHT22;8222;51.462;12.630;2022-08-19T02:46:42;21.80;99.90
16229;DHT22;8222;51.462;12.630;2022-08-19T02:49:10;21.70;99.90
16229;DHT22;8222;51.462;12.630;2022-08-19T02:51:38;21.80;99.90
16229;DHT22;8222;51.462;12.630;2022-08-19T02:54:05;21.70;99.90
16229;DHT22;8222;51.462;12.630;2022-08-19T02:56:34;21.80;99.90
16229;DHT22;8222;51.462;12.630;2022-08-19T02:59:01;21.70;99.90
16229;DHT22;8222;51.462;12.630;2022-08-19T03:01:30;21.80;99.90
16229;DHT22;8222;51.462;12.630;2022-08-19T03:03:57;21.80;99.90
16229;DHT22;8222;51.462;12.630;2022-08-19T03:06:23;21.90;99.90
16229;DHT22;8222;51.462;12.630;2022-08-19T03:08:51;22.00;99.90
16229;DHT22;8222;51.462;12.630;2022-08-19T03:11:24;22.00;99.90
16229;DHT22;8222;51.462;12.630;2022-08-19T03:13:50;22.00;99.90
16229;DHT22;8222;51.462;12.630;2022-08-19T03:16:17;22.00;99.90
16229;DHT22;8222;51.462;12.630;2022-08-19T03:18:43;22.00;99.90
16229;DHT22;8222;51.462;12.630;2022-08-19T03:21:09;22.10;99.90
16229;DHT22;8222;51.462;12.630;2022-08-19T03:23:39;22.10;99.90
16229;DHT22;8222;51.462;12.630;2022-08-19T03:26:05;22.10;99.90
16229;DHT22;8222;51.462;12.630;2022-08-19T03:28:31;22.10;99.90
16229;DHT22;8222;51.462;12.630;2022-08-19T03:31:12;22.20;99.90
16229;DHT22;8222;51.462;12.630;2022-08-19T03:33:39;22.20;99.90
16229;DHT22;8222;51.462;12.630;2022-08-19T03:36:08;22.30;99.90
16229;DHT22;8222;51.462;12.630;2022-08-19T03:38:36;22.40;99.90
16229;DHT22;8222;51.462;12.630;2022-08-19T03:41:04;22.50;99.90
16229;DHT22;8222;51.462;12.630;2022-08-19T03:43:33;22.40;99.90
16229;DHT22;8222;51.462;12.630;2022-08-19T03:46:07;22.40;99.90
16229;DHT22;8222;51.462;12.630;2022-08-19T03:48:34;22.30;99.90
16229;DHT22;8222;51.462;12.630;2022-08-19T03:51:00;22.30;99.90
16229;DHT22;8222;51.462;12.630;2022-08-19T03:53:27;22.20;99.90
16229;DHT22;8222;51.462;12.630;2022-08-19T03:55:54;22.40;99.90
16229;DHT22;8222;51.462;12.630;2022-08-19T03:58:20;22.40;99.90
16229;DHT22;8222;51.462;12.630;2022-08-19T04:00:46;22.50;99.90
16229;DHT22;8222;51.462;12.630;2022-08-19T04:03:11;22.50;99.90
16229;DHT22;8222;51.462;12.630;2022-08-19T04:05:37;22.50;99.90
16229;DHT22;8222;51.462;12.630;2022-08-19T04:08:04;22.30;99.90
16229;DHT22;8222;51.462;12.630;2022-08-19T04:10:37;22.20;99.90
16229;DHT22;8222;51.462;12.630;2022-08-19T04:13:04;22.20;99.90
16229;DHT22;8222;51.462;12.630;2022-08-19T04:15:31;22.10;99.90
16229;DHT22;8222;51.462;12.630;2022-08-19T04:18:01;22.10;99.90
16229;DHT22;8222;51.462;12.630;2022-08-19T04:20:27;22.10;99.90
16229;DHT22;8222;51.462;12.630;2022-08-19T04:22:53;22.20;99.90
16229;DHT22;8222;51.462;12.630;2022-08-19T04:25:18;22.20;99.90
16229;DHT22;8222;51.462;12.630;2022-08-19T04:27:44;22.30;99.90
16229;DHT22;8222;51.462;12.630;2022-08-19T04:30:13;22.30;99.90
16229;DHT22;8222;51.462;12.630;2022-08-19T04:32:38;22.30;99.90
16229;DHT22;8222;51.462;12.630;2022-08-19T04:35:04;22.30;99.90
16229;DHT22;8222;51.462;12.630;2022-08-19T04:37:30;22.30;99.90
16229;DHT22;8222;51.462;12.630;2022-08-19T04:39:58;22.40;99.90
16229;DHT22;8222;51.462;12.630;2022-08-19T04:42:43;22.40;99.90
16229;DHT22;8222;51.462;12.630;2022-08-19T04:45:12;22.30;99.90
16229;DHT22;8222;51.462;12.630;2022-08-19T04:47:40;22.30;99.90
16229;DHT22;8222;51.462;12.630;2022-08-19T04:50:07;22.30;99.90
16229;DHT22;8222;51.462;12.630;2022-08-19T04:52:34;22.10;99.90
16229;DHT22;8222;51.462;12.630;2022-08-19T04:55:00;22.00;99.90
16229;DHT22;8222;51.462;12.630;2022-08-19T04:57:26;22.00;99.90
16229;DHT22;8222;51.462;12.630;2022-08-19T04:59:57;22.00;99.90
16229;DHT22;8222;51.462;12.630;2022-08-19T05:02:23;21.90;99.90
16229;DHT22;8222;51.462;12.630;2022-08-19T05:04:50;21.90;99.90
16229;DHT22;8222;51.462;12.630;2022-08-19T05:07:15;21.90;99.90
16229;DHT22;8222;51.462;12.630;2022-08-19T05:09:41;22.00;99.90
16229;DHT22;8222;51.462;12.630;2022-08-19T05:12:08;22.00;99.90
16229;DHT22;8222;51.462;12.630;2022-08-19T05:14:33;22.00;99.90
16229;DHT22;8222;51.462;12.630;2022-08-19T05:17:01;22.00;99.90
16229;DHT22;8222;51.462;12.630;2022-08-19T05:19:27;22.10;99.90
16229;DHT22;8222;51.462;12.630;2022-08-19T05:22:11;22.20;99.90
16229;DHT22;8222;51.462;12.630;2022-08-19T05:24:55;22.10;99.90
16229;DHT22;8222;51.462;12.630;2022-08-19T05:27:21;22.10;99.90
16229;DHT22;8222;51.462;12.630;2022-08-19T05:29:47;22.10;99.90
16229;DHT22;8222;51.462;12.630;2022-08-19T05:32:12;22.00;99.90
16229;DHT22;8222;51.462;12.630;2022-08-19T05:34:38;22.00;99.90
16229;DHT22;8222;51.462;12.630;2022-08-19T05:37:05;22.00;99.90
16229;DHT22;8222;51.462;12.630;2022-08-19T05:39:35;21.90;99.90
16229;DHT22;8222;51.462;12.630;2022-08-19T05:42:04;22.00;99.90
16229;DHT22;8222;51.462;12.630;2022-08-19T05:44:35;22.00;99.90
16229;DHT22;8222;51.462;12.630;2022-08-19T05:47:03;22.00;99.90
16229;DHT22;8222;51.462;12.630;2022-08-19T05:49:31;22.00;99.90
16229;DHT22;8222;51.462;12.630;2022-08-19T05:51:57;22.10;99.90
16229;DHT22;8222;51.462;12.630;2022-08-19T05:54:25;22.00;99.90
16229;DHT22;8222;51.462;12.630;2022-08-19T05:56:52;22.00;99.90
16229;DHT22;8222;51.462;12.630;2022-08-19T05:59:20;21.90;99.90
16229;DHT22;8222;51.462;12.630;2022-08-19T06:01:48;22.00;99.90
16229;DHT22;8222;51.462;12.630;2022-08-19T06:04:18;22.00;99.90
16229;DHT22;8222;51.462;12.630;2022-08-19T06:06:49;22.00;99.90
16229;DHT22;8222;51.462;12.630;2022-08-19T06:09:16;22.00;99.90
16229;DHT22;8222;51.462;12.630;2022-08-19T06:11:57;22.10;99.90
16229;DHT22;8222;51.462;12.630;2022-08-19T06:14:28;22.10;99.90
16229;DHT22;8222;51.462;12.630;2022-08-19T06:16:53;22.20;99.90
16229;DHT22;8222;51.462;12.630;2022-08-19T06:19:20;22.20;99.90
16229;DHT22;8222;51.462;12.630;2022-08-19T06:21:48;22.20;99.90
16229;DHT22;8222;51.462;12.630;2022-08-19T06:24:18;22.20;99.90
16229;DHT22;8222;51.462;12.630;2022-08-19T06:26:46;22.20;99.90
16229;DHT22;8222;51.462;12.630;2022-08-19T06:29:14;22.20;99.90
16229;DHT22;8222;51.462;12.630;2022-08-19T06:31:46;22.10;99.90
16229;DHT22;8222;51.462;12.630;2022-08-19T06:34:15;22.10;99.90
16229;DHT22;8222;51.462;12.630;2022-08-19T06:36:44;22.00;99.90
16229;DHT22;8222;51.462;12.630;2022-08-19T06:39:13;22.00;99.90
16229;DHT22;8222;51.462;12.630;2022-08-19T06:41:45;22.00;99.90
16229;DHT22;8222;51.462;12.630;2022-08-19T06:44:11;22.00;99.90
16229;DHT22;8222;51.462;12.630;2022-08-19T06:46:39;22.00;99.90
16229;DHT22;8222;51.462;12.630;2022-08-19T06:49:05;21.90;99.90
16229;DHT22;8222;51.462;12.630;2022-08-19T06:51:31;21.90;99.90
16229;DHT22;8222;51.462;12.630;2022-08-19T06:53:58;21.90;99.90
16229;DHT22;8222;51.462;12.630;2022-08-19T06:56:29;21.90;99.90
16229;DHT22;8222;51.462;12.630;2022-08-19T06:58:57;22.00;99.90
16229;DHT22;8222;51.462;12.630;2022-08-19T07:01:23;22.00;99.90
16229;DHT22;8222;51.462;12.630;2022-08-19T07:03:49;21.90;99.90
16229;DHT22;8222;51.462;12.630;2022-08-19T07:06:18;21.90;99.90
16229;DHT22;8222;51.462;12.630;2022-08-19T07:08:46;22.00;99.90
16229;DHT22;8222;51.462;12.630;2022-08-19T07:11:14;22.00;99.90
16229;DHT22;8222;51.462;12.630;2022-08-19T07:13:41;21.90;99.90
16229;DHT22;8222;51.462;12.630;2022-08-19T07:16:11;21.90;99.90
16229;DHT22;8222;51.462;12.630;2022-08-19T07:18:38;21.90;99.90
16229;DHT22;8222;51.462;12.630;2022-08-19T07:21:09;22.00;99.90
16229;DHT22;8222;51.462;12.630;2022-08-19T07:23:35;22.00;99.90
16229;DHT22;8222;51.462;12.630;2022-08-19T07:26:10;22.00;99.90
16229;DHT22;8222;51.462;12.630;2022-08-19T07:28:36;22.10;99.90
16229;DHT22;8222;51.462;12.630;2022-08-19T07:31:09;22.10;99.90
16229;DHT22;8222;51.462;12.630;2022-08-19T07:33:35;22.10;99.90
16229;DHT22;8222;51.462;12.630;2022-08-19T07:36:06;22.20;99.90
16229;DHT22;8222;51.462;12.630;2022-08-19T07:38:33;22.20;99.90
16229;DHT22;8222;51.462;12.630;2022-08-19T07:41:00;22.20;99.90
16229;DHT22;8222;51.462;12.630;2022-08-19T07:43:26;22.10;99.90
16229;DHT22;8222;51.462;12.630;2022-08-19T07:45:53;22.20;99.90
16229;DHT22;8222;51.462;12.630;2022-08-19T07:48:26;22.20;99.90
16229;DHT22;8222;51.462;12.630;2022-08-19T07:50:58;22.20;99.90
16229;DHT22;8222;51.462;12.630;2022-08-19T07:53:28;22.20;99.90
16229;DHT22;8222;51.462;12.630;2022-08-19T07:55:54;22.20;99.90
16229;DHT22;8222;51.462;12.630;2022-08-19T07:58:22;22.10;99.90
16229;DHT22;8222;51.462;12.630;2022-08-19T08:00:49;22.20;99.90
16229;DHT22;8222;51.462;12.630;2022-08-19T08:03:18;22.10;99.90
16229;DHT22;8222;51.462;12.630;2022-08-19T08:05:44;22.20;99.90
16229;DHT22;8222;51.462;12.630;2022-08-19T08:08:29;22.10;99.90
16229;DHT22;8222;51.462;12.630;2022-08-19T08:11:17;22.10;99.90
16229;DHT22;8222;51.462;12.630;2022-08-19T08:13:44;22.10;99.90
16229;DHT22;8222;51.462;12.630;2022-08-19T08:16:10;22.00;99.90
16229;DHT22;8222;51.462;12.630;2022-08-19T08:18:35;22.10;99.90
16229;DHT22;8222;51.462;12.630;2022-08-19T08:21:07;22.10;99.90
16229;DHT22;8222;51.462;12.630;2022-08-19T08:23:32;22.10;99.90
16229;DHT22;8222;51.462;12.630;2022-08-19T08:25:58;22.10;99.90
16229;DHT22;8222;51.462;12.630;2022-08-19T08:28:26;22.00;99.90
16229;DHT22;8222;51.462;12.630;2022-08-19T08:30:52;22.10;99.90
16229;DHT22;8222;51.462;12.630;2022-08-19T08:33:25;22.00;99.90
16229;DHT22;8222;51.462;12.630;2022-08-19T08:35:51;22.00;99.90
16229;DHT22;8222;51.462;12.630;2022-08-19T08:38:18;21.90;99.90
16229;DHT22;8222;51.462;12.630;2022-08-19T08:41:01;22.00;99.90
16229;DHT22;8222;51.462;12.630;2022-08-19T08:43:37;22.00;99.90
16229;DHT22;8222;51.462;12.630;2022-08-19T08:51:20;22.10;99.90
16229;DHT22;8222;51.462;12.630;2022-08-19T08:53:50;22.20;99.90
16229;DHT22;8222;51.462;12.630;2022-08-19T08:56:16;22.20;99.90
16229;DHT22;8222;51.462;12.630;2022-08-19T08:59:10;22.20;99.90
16229;DHT22;8222;51.462;12.630;2022-08-19T09:01:38;22.20;99.90
16229;DHT22;8222;51.462;12.630;2022-08-19T09:04:05;22.40;99.90
16229;DHT22;8222;51.462;12.630;2022-08-19T09:12:28;22.60;99.90
16229;DHT22;8222;51.462;12.630;2022-08-19T09:15:06;22.60;99.90
16229;DHT22;8222;51.462;12.630;2022-08-19T09:17:33;22.60;99.90
16229;DHT22;8222;51.462;12.630;2022-08-19T09:20:12;22.60;99.90
16229;DHT22;8222;51.462;12.630;2022-08-19T09:22:40;22.50;99.90
16229;DHT22;8222;51.462;12.630;2022-08-19T09:25:10;22.50;99.90
16229;DHT22;8222;51.462;12.630;2022-08-19T09:27:38;22.60;99.90
16229;DHT22;8222;51.462;12.630;2022-08-19T09:30:05;22.60;99.90
16229;DHT22;8222;51.462;12.630;2022-08-19T09:32:33;22.60;99.90
16229;DHT22;8222;51.462;12.630;2022-08-19T09:34:58;22.60;99.90
16229;DHT22;8222;51.462;12.630;2022-08-19T09:37:27;22.50;99.90
16229;DHT22;8222;51.462;12.630;2022-08-19T09:39:53;22.50;99.90
16229;DHT22;8222;51.462;12.630;2022-08-19T09:42:20;22.60;99.90
16229;DHT22;8222;51.462;12.630;2022-08-19T09:44:46;22.70;99.90
16229;DHT22;8222;51.462;12.630;2022-08-19T09:47:13;22.80;99.90
16229;DHT22;8222;51.462;12.630;2022-08-19T09:49:39;22.80;99.90
16229;DHT22;8222;51.462;12.630;2022-08-19T09:52:09;22.90;99.90
16229;DHT22;8222;51.462;12.630;2022-08-19T09:54:36;22.70;99.90
16229;DHT22;8222;51.462;12.630;2022-08-19T09:57:02;22.80;99.90
16229;DHT22;8222;51.462;12.630;2022-08-19T09:59:28;23.00;99.90
16229;DHT22;8222;51.462;12.630;2022-08-19T10:01:54;23.30;99.90
16229;DHT22;8222;51.462;12.630;2022-08-19T10:04:21;23.40;99.90
16229;DHT22;8222;51.462;12.630;2022-08-19T10:06:47;23.70;99.90
16229;DHT22;8222;51.462;12.630;2022-08-19T10:09:15;23.90;99.90
16229;DHT22;8222;51.462;12.630;2022-08-19T10:11:43;24.00;99.90
16229;DHT22;8222;51.462;12.630;2022-08-19T10:14:08;23.80;99.90
16229;DHT22;8222;51.462;12.630;2022-08-19T10:16:36;23.90;99.90
16229;DHT22;8222;51.462;12.630;2022-08-19T10:19:02;23.80;99.90
16229;DHT22;8222;51.462;12.630;2022-08-19T10:21:31;24.00;99.90
16229;DHT22;8222;51.462;12.630;2022-08-19T10:24:00;24.10;99.90
16229;DHT22;8222;51.462;12.630;2022-08-19T10:26:32;24.20;99.90
16229;DHT22;8222;51.462;12.630;2022-08-19T10:28:59;24.50;99.90
16229;DHT22;8222;51.462;12.630;2022-08-19T10:31:28;24.70;99.90
16229;DHT22;8222;51.462;12.630;2022-08-19T10:33:54;25.10;99.90
16229;DHT22;8222;51.462;12.630;2022-08-19T10:36:25;25.20;99.90
16229;DHT22;8222;51.462;12.630;2022-08-19T10:38:52;25.30;99.90
16229;DHT22;8222;51.462;12.630;2022-08-19T10:41:24;25.30;99.90
16229;DHT22;8222;51.462;12.630;2022-08-19T10:43:52;25.20;99.90
16229;DHT22;8222;51.462;12.630;2022-08-19T10:46:21;25.20;99.90
16229;DHT22;8222;51.462;12.630;2022-08-19T10:48:48;25.50;99.90
16229;DHT22;8222;51.462;12.630;2022-08-19T10:51:14;25.50;99.90
16229;DHT22;8222;51.462;12.630;2022-08-19T10:53:59;25.60;99.90
16229;DHT22;8222;51.462;12.630;2022-08-19T10:56:26;25.80;99.90
16229;DHT22;8222;51.462;12.630;2022-08-19T10:59:11;25.90;99.90
16229;DHT22;8222;51.462;12.630;2022-08-19T11:01:40;26.00;99.90
16229;DHT22;8222;51.462;12.630;2022-08-19T11:04:06;25.60;99.90
16229;DHT22;8222;51.462;12.630;2022-08-19T11:06:36;25.50;99.90
16229;DHT22;8222;51.462;12.630;2022-08-19T11:09:04;25.20;99.90
16229;DHT22;8222;51.462;12.630;2022-08-19T11:11:30;25.20;99.90
16229;DHT22;8222;51.462;12.630;2022-08-19T11:13:57;25.20;99.90
16229;DHT22;8222;51.462;12.630;2022-08-19T11:16:25;25.30;99.90
16229;DHT22;8222;51.462;12.630;2022-08-19T11:18:57;25.20;99.90
16229;DHT22;8222;51.462;12.630;2022-08-19T11:21:32;25.10;99.90
16229;DHT22;8222;51.462;12.630;2022-08-19T11:24:00;25.30;99.90
16229;DHT22;8222;51.462;12.630;2022-08-19T11:26:27;25.30;99.90
16229;DHT22;8222;51.462;12.630;2022-08-19T11:28:55;25.30;99.90
16229;DHT22;8222;51.462;12.630;2022-08-19T11:31:24;25.30;99.90
16229;DHT22;8222;51.462;12.630;2022-08-19T11:33:50;25.20;99.90
16229;DHT22;8222;51.462;12.630;2022-08-19T11:36:17;24.90;99.90
16229;DHT22;8222;51.462;12.630;2022-08-19T11:38:44;25.10;99.90
16229;DHT22;8222;51.462;12.630;2022-08-19T11:41:10;24.90;99.90
16229;DHT22;8222;51.462;12.630;2022-08-19T11:43:36;24.90;99.90
16229;DHT22;8222;51.462;12.630;2022-08-19T11:46:07;24.80;99.90
16229;DHT22;8222;51.462;12.630;2022-08-19T11:48:33;24.80;99.90
16229;DHT22;8222;51.462;12.630;2022-08-19T11:50:59;24.70;99.90
16229;DHT22;8222;51.462;12.630;2022-08-19T11:53:25;24.50;99.90
16229;DHT22;8222;51.462;12.630;2022-08-19T11:55:53;24.50;99.90
16229;DHT22;8222;51.462;12.630;2022-08-19T11:58:21;24.60;99.90
16229;DHT22;8222;51.462;12.630;2022-08-19T12:00:46;24.50;99.90
16229;DHT22;8222;51.462;12.630;2022-08-19T12:03:15;24.50;99.90
16229;DHT22;8222;51.462;12.630;2022-08-19T12:05:41;24.50;99.90
16229;DHT22;8222;51.462;12.630;2022-08-19T12:08:07;24.40;99.90
16229;DHT22;8222;51.462;12.630;2022-08-19T12:10:34;24.50;99.90
16229;DHT22;8222;51.462;12.630;2022-08-19T12:13:00;24.60;99.90
16229;DHT22;8222;51.462;12.630;2022-08-19T12:15:27;24.60;99.90
16229;DHT22;8222;51.462;12.630;2022-08-19T12:17:55;24.80;99.90
16229;DHT22;8222;51.462;12.630;2022-08-19T12:20:23;24.90;99.90
16229;DHT22;8222;51.462;12.630;2022-08-19T12:22:49;25.00;99.90
16229;DHT22;8222;51.462;12.630;2022-08-19T12:25:15;25.20;99.90
16229;DHT22;8222;51.462;12.630;2022-08-19T12:27:41;25.20;99.90
16229;DHT22;8222;51.462;12.630;2022-08-19T12:30:10;25.40;99.90
16229;DHT22;8222;51.462;12.630;2022-08-19T12:32:36;25.70;99.90
16229;DHT22;8222;51.462;12.630;2022-08-19T12:35:02;25.50;99.90
16229;DHT22;8222;51.462;12.630;2022-08-19T12:37:28;25.50;99.90
16229;DHT22;8222;51.462;12.630;2022-08-19T12:39:57;25.40;99.90
16229;DHT22;8222;51.462;12.630;2022-08-19T12:42:23;25.30;99.90
16229;DHT22;8222;51.462;12.630;2022-08-19T12:44:49;25.20;99.90
16229;DHT22;8222;51.462;12.630;2022-08-19T12:47:17;25.20;99.90
16229;DHT22;8222;51.462;12.630;2022-08-19T12:49:43;25.40;99.90
16229;DHT22;8222;51.462;12.630;2022-08-19T12:52:10;25.50;99.90
16229;DHT22;8222;51.462;12.630;2022-08-19T12:54:36;25.60;99.90
16229;DHT22;8222;51.462;12.630;2022-08-19T12:57:09;25.70;99.90
16229;DHT22;8222;51.462;12.630;2022-08-19T12:59:37;26.00;99.90
16229;DHT22;8222;51.462;12.630;2022-08-19T13:02:06;26.30;99.90
16229;DHT22;8222;51.462;12.630;2022-08-19T13:04:33;26.20;99.90
16229;DHT22;8222;51.462;12.630;2022-08-19T13:07:02;26.30;99.90
16229;DHT22;8222;51.462;12.630;2022-08-19T13:09:27;26.30;99.90
16229;DHT22;8222;51.462;12.630;2022-08-19T13:11:53;26.40;99.90
16229;DHT22;8222;51.462;12.630;2022-08-19T13:14:18;26.50;99.90
16229;DHT22;8222;51.462;12.630;2022-08-19T13:16:44;26.40;99.90
16229;DHT22;8222;51.462;12.630;2022-08-19T13:19:10;26.30;99.90
16229;DHT22;8222;51.462;12.630;2022-08-19T13:21:37;26.40;99.90
16229;DHT22;8222;51.462;12.630;2022-08-19T13:24:03;26.30;99.90
16229;DHT22;8222;51.462;12.630;2022-08-19T13:26:28;26.20;99.90
16229;DHT22;8222;51.462;12.630;2022-08-19T13:28:54;25.90;99.90
16229;DHT22;8222;51.462;12.630;2022-08-19T13:31:40;25.80;99.90
16229;DHT22;8222;51.462;12.630;2022-08-19T13:34:31;25.70;99.90
16229;DHT22;8222;51.462;12.630;2022-08-19T13:36:59;25.60;99.90
16229;DHT22;8222;51.462;12.630;2022-08-19T13:39:25;25.20;99.90
16229;DHT22;8222;51.462;12.630;2022-08-19T13:41:51;25.20;99.90
16229;DHT22;8222;51.462;12.630;2022-08-19T13:44:17;25.10;99.90
16229;DHT22;8222;51.462;12.630;2022-08-19T13:46:44;25.10;99.90
16229;DHT22;8222;51.462;12.630;2022-08-19T13:49:11;25.20;99.90
16229;DHT22;8222;51.462;12.630;2022-08-19T13:51:38;25.20;99.90
16229;DHT22;8222;51.462;12.630;2022-08-19T13:54:08;25.10;99.90
16229;DHT22;8222;51.462;12.630;2022-08-19T13:56:35;25.00;99.90
16229;DHT22;8222;51.462;12.630;2022-08-19T13:59:04;24.90;99.90
16229;DHT22;8222;51.462;12.630;2022-08-19T14:01:30;25.00;99.90
16229;DHT22;8222;51.462;12.630;2022-08-19T14:03:56;25.10;99.90
16229;DHT22;8222;51.462;12.630;2022-08-19T14:06:21;25.10;99.90
16229;DHT22;8222;51.462;12.630;2022-08-19T14:08:48;25.10;99.90
16229;DHT22;8222;51.462;12.630;2022-08-19T14:11:14;25.00;99.90
16229;DHT22;8222;51.462;12.630;2022-08-19T14:13:40;24.90;99.90
16229;DHT22;8222;51.462;12.630;2022-08-19T14:16:10;24.90;99.90
16229;DHT22;8222;51.462;12.630;2022-08-19T14:18:36;24.80;99.90
16229;DHT22;8222;51.462;12.630;2022-08-19T14:21:03;24.80;99.90
16229;DHT22;8222;51.462;12.630;2022-08-19T14:23:30;24.80;99.90
16229;DHT22;8222;51.462;12.630;2022-08-19T14:26:04;24.80;99.90
16229;DHT22;8222;51.462;12.630;2022-08-19T14:28:30;24.80;99.90
16229;DHT22;8222;51.462;12.630;2022-08-19T14:30:56;24.90;99.90
16229;DHT22;8222;51.462;12.630;2022-08-19T14:33:21;24.90;99.90
16229;DHT22;8222;51.462;12.630;2022-08-19T14:35:47;24.90;99.90
16229;DHT22;8222;51.462;12.630;2022-08-19T14:38:17;24.90;99.90
16229;DHT22;8222;51.462;12.630;2022-08-19T14:40:44;25.00;99.90
16229;DHT22;8222;51.462;12.630;2022-08-19T14:43:11;24.90;99.90
16229;DHT22;8222;51.462;12.630;2022-08-19T14:45:38;24.90;99.90
16229;DHT22;8222;51.462;12.630;2022-08-19T14:48:05;24.80;99.90
16229;DHT22;8222;51.462;12.630;2022-08-19T14:50:32;24.70;99.90
16229;DHT22;8222;51.462;12.630;2022-08-19T14:53:04;24.80;99.90
16229;DHT22;8222;51.462;12.630;2022-08-19T14:55:31;24.80;99.90
16229;DHT22;8222;51.462;12.630;2022-08-19T14:57:57;24.90;99.90
16229;DHT22;8222;51.462;12.630;2022-08-19T15:00:23;24.90;99.90
16229;DHT22;8222;51.462;12.630;2022-08-19T15:02:49;24.80;99.90
16229;DHT22;8222;51.462;12.630;2022-08-19T15:05:16;24.80;99.90
16229;DHT22;8222;51.462;12.630;2022-08-19T15:07:42;24.70;99.90
16229;DHT22;8222;51.462;12.630;2022-08-19T15:10:09;24.80;99.90
16229;DHT22;8222;51.462;12.630;2022-08-19T15:12:38;24.90;99.90
16229;DHT22;8222;51.462;12.630;2022-08-19T15:15:10;24.90;99.90
16229;DHT22;8222;51.462;12.630;2022-08-19T15:17:38;25.00;99.90
16229;DHT22;8222;51.462;12.630;2022-08-19T15:20:06;25.10;99.90
16229;DHT22;8222;51.462;12.630;2022-08-19T15:22:32;25.20;99.90
16229;DHT22;8222;51.462;12.630;2022-08-19T15:24:58;25.30;99.90
16229;DHT22;8222;51.462;12.630;2022-08-19T15:27:23;25.30;99.90
16229;DHT22;8222;51.462;12.630;2022-08-19T15:29:49;25.20;99.90
16229;DHT22;8222;51.462;12.630;2022-08-19T15:32:15;25.20;99.90
16229;DHT22;8222;51.462;12.630;2022-08-19T15:34:40;25.20;99.90
16229;DHT22;8222;51.462;12.630;2022-08-19T15:37:06;25.30;99.90
16229;DHT22;8222;51.462;12.630;2022-08-19T15:39:32;25.30;99.90
16229;DHT22;8222;51.462;12.630;2022-08-19T15:41:58;25.40;99.90
16229;DHT22;8222;51.462;12.630;2022-08-19T15:44:28;25.30;99.90
16229;DHT22;8222;51.462;12.630;2022-08-19T15:46:54;25.30;99.90